sensor_id;sensor_type;location;lat;lon;timestamp;P1;durP1;ratioP1;P2;durP2;ratioP2
54368;SDS011;40266;52.434;17.056;2023-05-29T00:03:41;21.90;;;5.90;;
54368;SDS011;40266;52.434;17.056;2023-05-29T00:06:25;28.30;;;5.50;;
54368;SDS011;40266;52.434;17.056;2023-05-29T00:09:08;23.90;;;6.40;;
54368;SDS011;40266;52.434;17.056;2023-05-29T00:11:52;18.80;;;5.60;;
54368;SDS011;40266;52.434;17.056;2023-05-29T00:14:35;30.90;;;6.20;;
54368;SDS011;40266;52.434;17.056;2023-05-29T00:17:18;18.20;;;6.20;;
54368;SDS011;40266;52.434;17.056;2023-05-29T00:20:01;22.40;;;5.20;;
54368;SDS011;40266;52.434;17.056;2023-05-29T00:22:55;21.90;;;5.40;;
54368;SDS011;40266;52.434;17.056;2023-05-29T00:25:38;16.50;;;5.30;;
54368;SDS011;40266;52.434;17.056;2023-05-29T00:28:22;13.90;;;5.40;;
54368;SDS011;40266;52.434;17.056;2023-05-29T00:31:05;15.80;;;5.20;;
54368;SDS011;40266;52.434;17.056;2023-05-29T00:33:50;14.60;;;4.60;;
54368;SDS011;40266;52.434;17.056;2023-05-29T00:39:15;14.10;;;4.90;;
54368;SDS011;40266;52.434;17.056;2023-05-29T00:41:59;15.80;;;5.00;;
54368;SDS011;40266;52.434;17.056;2023-05-29T00:44:42;10.40;;;4.60;;
54368;SDS011;40266;52.434;17.056;2023-05-29T00:47:25;16.90;;;5.20;;
54368;SDS011;40266;52.434;17.056;2023-05-29T00:50:09;14.70;;;5.70;;
54368;SDS011;40266;52.434;17.056;2023-05-29T00:52:53;15.60;;;5.20;;
54368;SDS011;40266;52.434;17.056;2023-05-29T00:55:36;9.90;;;4.80;;
54368;SDS011;40266;52.434;17.056;2023-05-29T00:58:20;10.20;;;4.50;;
54368;SDS011;40266;52.434;17.056;2023-05-29T01:01:03;10.10;;;5.00;;
54368;SDS011;40266;52.434;17.056;2023-05-29T01:03:47;13.00;;;5.30;;
54368;SDS011;40266;52.434;17.056;2023-05-29T01:06:36;9.80;;;4.40;;
54368;SDS011;40266;52.434;17.056;2023-05-29T01:09:19;18.30;;;5.80;;
54368;SDS011;40266;52.434;17.056;2023-05-29T01:21:27;11.40;;;4.80;;
54368;SDS011;40266;52.434;17.056;2023-05-29T01:24:49;11.90;;;5.60;;
54368;SDS011;40266;52.434;17.056;2023-05-29T01:27:40;13.70;;;5.80;;
54368;SDS011;40266;52.434;17.056;2023-05-29T01:30:25;11.10;;;4.70;;
54368;SDS011;40266;52.434;17.056;2023-05-29T01:33:10;14.90;;;5.10;;
54368;SDS011;40266;52.434;17.056;2023-05-29T01:35:54;14.70;;;5.60;;
54368;SDS011;40266;52.434;17.056;2023-05-29T01:38:38;11.20;;;4.90;;
54368;SDS011;40266;52.434;17.056;2023-05-29T01:41:21;15.40;;;5.10;;
54368;SDS011;40266;52.434;17.056;2023-05-29T01:44:05;13.60;;;5.80;;
54368;SDS011;40266;52.434;17.056;2023-05-29T01:46:53;10.80;;;4.50;;
54368;SDS011;40266;52.434;17.056;2023-05-29T01:49:37;17.00;;;5.20;;
54368;SDS011;40266;52.434;17.056;2023-05-29T01:52:23;12.20;;;5.20;;
54368;SDS011;40266;52.434;17.056;2023-05-29T01:55:07;16.80;;;5.00;;
54368;SDS011;40266;52.434;17.056;2023-05-29T01:57:51;19.00;;;5.40;;
54368;SDS011;40266;52.434;17.056;2023-05-29T02:00:35;23.80;;;6.30;;
54368;SDS011;40266;52.434;17.056;2023-05-29T02:03:18;17.20;;;5.80;;
54368;SDS011;40266;52.434;17.056;2023-05-29T02:06:01;16.30;;;4.80;;
54368;SDS011;40266;52.434;17.056;2023-05-29T02:08:44;16.50;;;5.00;;
54368;SDS011;40266;52.434;17.056;2023-05-29T02:11:26;15.90;;;4.90;;
54368;SDS011;40266;52.434;17.056;2023-05-29T02:14:09;15.70;;;4.80;;
54368;SDS011;40266;52.434;17.056;2023-05-29T02:16:52;10.90;;;4.70;;
54368;SDS011;40266;52.434;17.056;2023-05-29T02:19:35;13.10;;;5.10;;
54368;SDS011;40266;52.434;17.056;2023-05-29T02:22:19;14.10;;;4.90;;
54368;SDS011;40266;52.434;17.056;2023-05-29T02:25:02;13.60;;;4.80;;
54368;SDS011;40266;52.434;17.056;2023-05-29T02:27:45;12.70;;;5.50;;
54368;SDS011;40266;52.434;17.056;2023-05-29T02:30:29;15.20;;;4.50;;
54368;SDS011;40266;52.434;17.056;2023-05-29T02:33:12;8.40;;;4.60;;
54368;SDS011;40266;52.434;17.056;2023-05-29T02:35:55;47.30;;;9.50;;
54368;SDS011;40266;52.434;17.056;2023-05-29T02:38:39;109.30;;;16.70;;
54368;SDS011;40266;52.434;17.056;2023-05-29T02:41:22;72.80;;;11.90;;
54368;SDS011;40266;52.434;17.056;2023-05-29T02:44:05;42.10;;;8.90;;
54368;SDS011;40266;52.434;17.056;2023-05-29T02:46:48;39.40;;;7.20;;
54368;SDS011;40266;52.434;17.056;2023-05-29T02:49:35;63.20;;;9.30;;
54368;SDS011;40266;52.434;17.056;2023-05-29T02:52:18;64.10;;;10.60;;
54368;SDS011;40266;52.434;17.056;2023-05-29T02:55:01;55.50;;;10.70;;
54368;SDS011;40266;52.434;17.056;2023-05-29T02:57:45;52.00;;;9.60;;
54368;SDS011;40266;52.434;17.056;2023-05-29T03:00:31;41.90;;;9.80;;
54368;SDS011;40266;52.434;17.056;2023-05-29T03:05:57;50.40;;;8.90;;
54368;SDS011;40266;52.434;17.056;2023-05-29T03:08:40;42.90;;;8.30;;
54368;SDS011;40266;52.434;17.056;2023-05-29T03:11:23;43.10;;;7.90;;
54368;SDS011;40266;52.434;17.056;2023-05-29T03:14:07;43.40;;;8.30;;
54368;SDS011;40266;52.434;17.056;2023-05-29T03:16:51;51.80;;;8.70;;
54368;SDS011;40266;52.434;17.056;2023-05-29T03:19:35;74.20;;;9.40;;
54368;SDS011;40266;52.434;17.056;2023-05-29T03:22:19;47.30;;;9.50;;
54368;SDS011;40266;52.434;17.056;2023-05-29T03:25:02;48.30;;;8.60;;
54368;SDS011;40266;52.434;17.056;2023-05-29T03:27:46;55.30;;;8.20;;
54368;SDS011;40266;52.434;17.056;2023-05-29T03:30:32;33.50;;;7.30;;
54368;SDS011;40266;52.434;17.056;2023-05-29T03:33:16;24.30;;;5.70;;
54368;SDS011;40266;52.434;17.056;2023-05-29T03:36:12;34.70;;;6.40;;
54368;SDS011;40266;52.434;17.056;2023-05-29T03:38:57;24.70;;;5.90;;
54368;SDS011;40266;52.434;17.056;2023-05-29T03:41:40;20.60;;;5.30;;
54368;SDS011;40266;52.434;17.056;2023-05-29T03:44:23;18.00;;;5.30;;
54368;SDS011;40266;52.434;17.056;2023-05-29T03:47:06;20.80;;;6.10;;
54368;SDS011;40266;52.434;17.056;2023-05-29T03:49:52;23.40;;;5.60;;
54368;SDS011;40266;52.434;17.056;2023-05-29T03:52:35;21.00;;;5.70;;
54368;SDS011;40266;52.434;17.056;2023-05-29T03:55:17;10.60;;;4.60;;
54368;SDS011;40266;52.434;17.056;2023-05-29T03:58:00;18.90;;;4.70;;
54368;SDS011;40266;52.434;17.056;2023-05-29T04:00:44;15.00;;;5.00;;
54368;SDS011;40266;52.434;17.056;2023-05-29T04:03:27;18.30;;;5.10;;
54368;SDS011;40266;52.434;17.056;2023-05-29T04:06:13;11.10;;;5.30;;
54368;SDS011;40266;52.434;17.056;2023-05-29T04:08:56;18.50;;;6.00;;
54368;SDS011;40266;52.434;17.056;2023-05-29T04:11:39;17.80;;;5.60;;
54368;SDS011;40266;52.434;17.056;2023-05-29T04:14:24;13.20;;;6.00;;
54368;SDS011;40266;52.434;17.056;2023-05-29T04:17:07;21.00;;;5.10;;
54368;SDS011;40266;52.434;17.056;2023-05-29T04:19:50;14.20;;;5.10;;
54368;SDS011;40266;52.434;17.056;2023-05-29T04:22:33;20.90;;;5.70;;
54368;SDS011;40266;52.434;17.056;2023-05-29T04:25:18;40.50;;;7.20;;
54368;SDS011;40266;52.434;17.056;2023-05-29T04:28:01;21.80;;;5.30;;
54368;SDS011;40266;52.434;17.056;2023-05-29T04:30:45;21.60;;;5.90;;
54368;SDS011;40266;52.434;17.056;2023-05-29T04:33:28;25.80;;;6.10;;
54368;SDS011;40266;52.434;17.056;2023-05-29T04:36:12;25.20;;;5.60;;
54368;SDS011;40266;52.434;17.056;2023-05-29T04:38:57;20.60;;;5.90;;
54368;SDS011;40266;52.434;17.056;2023-05-29T04:41:41;15.50;;;5.70;;
54368;SDS011;40266;52.434;17.056;2023-05-29T04:44:29;14.20;;;4.50;;
54368;SDS011;40266;52.434;17.056;2023-05-29T04:47:14;12.10;;;4.50;;
54368;SDS011;40266;52.434;17.056;2023-05-29T04:49:59;15.30;;;5.00;;
54368;SDS011;40266;52.434;17.056;2023-05-29T04:52:43;13.90;;;4.90;;
54368;SDS011;40266;52.434;17.056;2023-05-29T04:55:26;17.20;;;5.00;;
54368;SDS011;40266;52.434;17.056;2023-05-29T04:58:10;14.30;;;4.70;;
54368;SDS011;40266;52.434;17.056;2023-05-29T05:00:55;11.50;;;4.60;;
54368;SDS011;40266;52.434;17.056;2023-05-29T05:03:44;15.00;;;5.60;;
54368;SDS011;40266;52.434;17.056;2023-05-29T05:06:28;15.50;;;4.30;;
54368;SDS011;40266;52.434;17.056;2023-05-29T05:09:11;13.10;;;4.40;;
54368;SDS011;40266;52.434;17.056;2023-05-29T05:11:55;11.40;;;4.40;;
54368;SDS011;40266;52.434;17.056;2023-05-29T05:14:39;11.40;;;3.90;;
54368;SDS011;40266;52.434;17.056;2023-05-29T05:17:22;12.20;;;5.60;;
54368;SDS011;40266;52.434;17.056;2023-05-29T05:20:05;11.10;;;4.70;;
54368;SDS011;40266;52.434;17.056;2023-05-29T05:22:51;11.90;;;4.80;;
54368;SDS011;40266;52.434;17.056;2023-05-29T05:25:35;13.80;;;5.20;;
54368;SDS011;40266;52.434;17.056;2023-05-29T05:28:18;11.70;;;4.70;;
54368;SDS011;40266;52.434;17.056;2023-05-29T05:31:01;12.10;;;4.60;;
54368;SDS011;40266;52.434;17.056;2023-05-29T05:33:46;11.70;;;4.70;;
54368;SDS011;40266;52.434;17.056;2023-05-29T05:36:28;10.90;;;4.80;;
54368;SDS011;40266;52.434;17.056;2023-05-29T05:39:19;16.00;;;4.90;;
54368;SDS011;40266;52.434;17.056;2023-05-29T05:42:02;10.70;;;4.10;;
54368;SDS011;40266;52.434;17.056;2023-05-29T05:45:02;13.00;;;4.80;;
54368;SDS011;40266;52.434;17.056;2023-05-29T05:47:47;16.90;;;5.20;;
54368;SDS011;40266;52.434;17.056;2023-05-29T05:50:30;12.00;;;4.70;;
54368;SDS011;40266;52.434;17.056;2023-05-29T05:53:13;10.40;;;4.40;;
54368;SDS011;40266;52.434;17.056;2023-05-29T05:55:57;11.00;;;4.90;;
54368;SDS011;40266;52.434;17.056;2023-05-29T05:58:40;12.10;;;4.70;;
54368;SDS011;40266;52.434;17.056;2023-05-29T06:01:24;10.60;;;4.20;;
54368;SDS011;40266;52.434;17.056;2023-05-29T06:04:08;10.80;;;4.20;;
54368;SDS011;40266;52.434;17.056;2023-05-29T06:06:51;12.40;;;4.60;;
54368;SDS011;40266;52.434;17.056;2023-05-29T06:09:34;10.10;;;5.00;;
54368;SDS011;40266;52.434;17.056;2023-05-29T06:12:17;9.60;;;4.40;;
54368;SDS011;40266;52.434;17.056;2023-05-29T06:15:09;14.70;;;4.40;;
54368;SDS011;40266;52.434;17.056;2023-05-29T06:17:52;10.00;;;4.50;;
54368;SDS011;40266;52.434;17.056;2023-05-29T06:20:39;11.50;;;4.10;;
54368;SDS011;40266;52.434;17.056;2023-05-29T06:23:23;14.60;;;4.10;;
54368;SDS011;40266;52.434;17.056;2023-05-29T06:26:07;9.60;;;4.40;;
54368;SDS011;40266;52.434;17.056;2023-05-29T06:28:50;9.90;;;4.60;;
54368;SDS011;40266;52.434;17.056;2023-05-29T06:31:34;12.30;;;4.40;;
54368;SDS011;40266;52.434;17.056;2023-05-29T06:34:17;10.80;;;4.60;;
54368;SDS011;40266;52.434;17.056;2023-05-29T06:37:00;8.80;;;4.00;;
54368;SDS011;40266;52.434;17.056;2023-05-29T06:39:46;41.70;;;6.90;;
54368;SDS011;40266;52.434;17.056;2023-05-29T06:42:29;14.80;;;3.80;;
54368;SDS011;40266;52.434;17.056;2023-05-29T06:45:13;9.10;;;3.80;;
54368;SDS011;40266;52.434;17.056;2023-05-29T06:47:57;8.50;;;4.00;;
54368;SDS011;40266;52.434;17.056;2023-05-29T06:50:40;12.10;;;3.90;;
54368;SDS011;40266;52.434;17.056;2023-05-29T06:53:41;9.40;;;4.10;;
54368;SDS011;40266;52.434;17.056;2023-05-29T06:56:28;10.70;;;4.20;;
54368;SDS011;40266;52.434;17.056;2023-05-29T06:59:13;10.70;;;4.60;;
54368;SDS011;40266;52.434;17.056;2023-05-29T07:01:56;10.90;;;4.30;;
54368;SDS011;40266;52.434;17.056;2023-05-29T07:04:38;17.90;;;5.00;;
54368;SDS011;40266;52.434;17.056;2023-05-29T07:07:21;10.70;;;4.50;;
54368;SDS011;40266;52.434;17.056;2023-05-29T07:10:05;12.20;;;3.70;;
54368;SDS011;40266;52.434;17.056;2023-05-29T07:12:48;10.10;;;3.40;;
54368;SDS011;40266;52.434;17.056;2023-05-29T07:15:33;10.70;;;4.20;;
54368;SDS011;40266;52.434;17.056;2023-05-29T07:18:16;10.20;;;3.90;;
54368;SDS011;40266;52.434;17.056;2023-05-29T07:20:59;11.90;;;4.10;;
54368;SDS011;40266;52.434;17.056;2023-05-29T07:23:44;12.50;;;4.00;;
54368;SDS011;40266;52.434;17.056;2023-05-29T07:26:27;14.10;;;3.90;;
54368;SDS011;40266;52.434;17.056;2023-05-29T07:29:10;10.20;;;3.70;;
54368;SDS011;40266;52.434;17.056;2023-05-29T07:31:54;12.80;;;3.70;;
54368;SDS011;40266;52.434;17.056;2023-05-29T07:34:38;13.60;;;4.20;;
54368;SDS011;40266;52.434;17.056;2023-05-29T07:37:21;14.40;;;3.90;;
54368;SDS011;40266;52.434;17.056;2023-05-29T07:40:04;12.10;;;4.20;;
54368;SDS011;40266;52.434;17.056;2023-05-29T07:43:25;10.10;;;3.80;;
54368;SDS011;40266;52.434;17.056;2023-05-29T07:46:11;12.30;;;3.80;;
54368;SDS011;40266;52.434;17.056;2023-05-29T07:48:55;11.50;;;4.00;;
54368;SDS011;40266;52.434;17.056;2023-05-29T07:51:38;13.40;;;4.00;;
54368;SDS011;40266;52.434;17.056;2023-05-29T07:54:22;10.90;;;4.20;;
54368;SDS011;40266;52.434;17.056;2023-05-29T07:57:05;9.20;;;3.80;;
54368;SDS011;40266;52.434;17.056;2023-05-29T07:59:54;12.20;;;3.40;;
54368;SDS011;40266;52.434;17.056;2023-05-29T08:02:37;6.50;;;3.00;;
54368;SDS011;40266;52.434;17.056;2023-05-29T08:05:52;15.40;;;4.00;;
54368;SDS011;40266;52.434;17.056;2023-05-29T08:08:36;11.00;;;3.90;;
54368;SDS011;40266;52.434;17.056;2023-05-29T08:11:19;11.40;;;4.20;;
54368;SDS011;40266;52.434;17.056;2023-05-29T08:14:05;10.30;;;3.90;;
54368;SDS011;40266;52.434;17.056;2023-05-29T08:16:49;10.20;;;3.80;;
54368;SDS011;40266;52.434;17.056;2023-05-29T08:19:33;7.60;;;3.80;;
54368;SDS011;40266;52.434;17.056;2023-05-29T08:22:16;13.60;;;4.50;;
54368;SDS011;40266;52.434;17.056;2023-05-29T08:25:05;9.00;;;3.50;;
54368;SDS011;40266;52.434;17.056;2023-05-29T08:27:48;10.30;;;3.60;;
54368;SDS011;40266;52.434;17.056;2023-05-29T08:30:32;10.70;;;3.90;;
54368;SDS011;40266;52.434;17.056;2023-05-29T08:33:16;9.10;;;4.40;;
54368;SDS011;40266;52.434;17.056;2023-05-29T08:35:59;8.20;;;3.80;;
54368;SDS011;40266;52.434;17.056;2023-05-29T08:38:45;12.10;;;4.10;;
54368;SDS011;40266;52.434;17.056;2023-05-29T08:41:31;13.00;;;3.90;;
54368;SDS011;40266;52.434;17.056;2023-05-29T08:44:21;11.80;;;4.20;;
54368;SDS011;40266;52.434;17.056;2023-05-29T08:47:06;8.50;;;3.70;;
54368;SDS011;40266;52.434;17.056;2023-05-29T08:49:53;13.50;;;3.90;;
54368;SDS011;40266;52.434;17.056;2023-05-29T08:52:37;10.00;;;4.30;;
54368;SDS011;40266;52.434;17.056;2023-05-29T08:55:23;10.20;;;3.70;;
54368;SDS011;40266;52.434;17.056;2023-05-29T08:58:06;9.50;;;3.90;;
54368;SDS011;40266;52.434;17.056;2023-05-29T09:00:51;8.60;;;3.20;;
54368;SDS011;40266;52.434;17.056;2023-05-29T09:03:34;9.60;;;3.70;;
54368;SDS011;40266;52.434;17.056;2023-05-29T09:06:17;10.40;;;3.40;;
54368;SDS011;40266;52.434;17.056;2023-05-29T09:09:01;9.10;;;3.70;;
54368;SDS011;40266;52.434;17.056;2023-05-29T09:11:44;9.90;;;4.00;;
54368;SDS011;40266;52.434;17.056;2023-05-29T09:17:25;7.40;;;3.20;;
54368;SDS011;40266;52.434;17.056;2023-05-29T09:20:16;7.50;;;3.50;;
54368;SDS011;40266;52.434;17.056;2023-05-29T09:23:01;6.30;;;3.00;;
54368;SDS011;40266;52.434;17.056;2023-05-29T09:25:50;7.20;;;2.90;;
54368;SDS011;40266;52.434;17.056;2023-05-29T09:28:39;8.60;;;3.60;;
54368;SDS011;40266;52.434;17.056;2023-05-29T09:31:23;9.80;;;3.70;;
54368;SDS011;40266;52.434;17.056;2023-05-29T09:34:09;13.40;;;3.60;;
54368;SDS011;40266;52.434;17.056;2023-05-29T09:36:53;9.60;;;4.00;;
54368;SDS011;40266;52.434;17.056;2023-05-29T09:42:31;12.50;;;3.60;;
54368;SDS011;40266;52.434;17.056;2023-05-29T09:45:16;8.10;;;3.60;;
54368;SDS011;40266;52.434;17.056;2023-05-29T09:48:00;7.70;;;3.10;;
54368;SDS011;40266;52.434;17.056;2023-05-29T09:50:45;10.80;;;3.10;;
54368;SDS011;40266;52.434;17.056;2023-05-29T09:53:30;7.90;;;3.80;;
54368;SDS011;40266;52.434;17.056;2023-05-29T09:56:13;6.60;;;3.30;;
54368;SDS011;40266;52.434;17.056;2023-05-29T09:59:00;8.60;;;4.00;;
54368;SDS011;40266;52.434;17.056;2023-05-29T10:01:44;9.80;;;3.80;;
54368;SDS011;40266;52.434;17.056;2023-05-29T10:04:27;11.60;;;3.40;;
54368;SDS011;40266;52.434;17.056;2023-05-29T10:07:12;9.70;;;3.60;;
54368;SDS011;40266;52.434;17.056;2023-05-29T10:10:04;7.80;;;3.20;;
54368;SDS011;40266;52.434;17.056;2023-05-29T10:12:50;11.20;;;4.00;;
54368;SDS011;40266;52.434;17.056;2023-05-29T10:15:34;7.30;;;3.30;;
54368;SDS011;40266;52.434;17.056;2023-05-29T10:21:04;8.50;;;3.40;;
54368;SDS011;40266;52.434;17.056;2023-05-29T10:23:54;8.10;;;3.20;;
54368;SDS011;40266;52.434;17.056;2023-05-29T10:26:40;8.10;;;3.30;;
54368;SDS011;40266;52.434;17.056;2023-05-29T10:29:33;12.70;;;3.90;;
54368;SDS011;40266;52.434;17.056;2023-05-29T10:35:22;10.80;;;3.50;;
54368;SDS011;40266;52.434;17.056;2023-05-29T10:38:14;7.60;;;3.50;;
54368;SDS011;40266;52.434;17.056;2023-05-29T10:47:22;11.40;;;3.20;;
54368;SDS011;40266;52.434;17.056;2023-05-29T10:50:06;12.90;;;4.10;;
54368;SDS011;40266;52.434;17.056;2023-05-29T10:52:49;11.80;;;4.30;;
54368;SDS011;40266;52.434;17.056;2023-05-29T10:55:34;12.10;;;4.60;;
54368;SDS011;40266;52.434;17.056;2023-05-29T10:58:20;10.10;;;4.10;;
54368;SDS011;40266;52.434;17.056;2023-05-29T11:01:08;9.90;;;3.90;;
54368;SDS011;40266;52.434;17.056;2023-05-29T11:03:51;14.00;;;4.10;;
54368;SDS011;40266;52.434;17.056;2023-05-29T11:06:36;6.70;;;3.40;;
54368;SDS011;40266;52.434;17.056;2023-05-29T11:12:23;8.40;;;3.90;;
54368;SDS011;40266;52.434;17.056;2023-05-29T11:15:16;8.80;;;4.10;;
54368;SDS011;40266;52.434;17.056;2023-05-29T11:18:08;6.50;;;4.10;;
54368;SDS011;40266;52.434;17.056;2023-05-29T11:20:56;9.20;;;3.80;;
54368;SDS011;40266;52.434;17.056;2023-05-29T11:23:43;12.70;;;3.60;;
54368;SDS011;40266;52.434;17.056;2023-05-29T11:26:29;13.20;;;4.30;;
54368;SDS011;40266;52.434;17.056;2023-05-29T11:29:13;10.10;;;3.80;;
54368;SDS011;40266;52.434;17.056;2023-05-29T11:32:03;8.40;;;3.70;;
54368;SDS011;40266;52.434;17.056;2023-05-29T11:34:55;7.20;;;3.80;;
54368;SDS011;40266;52.434;17.056;2023-05-29T11:37:42;8.20;;;3.60;;
54368;SDS011;40266;52.434;17.056;2023-05-29T11:40:28;9.10;;;3.70;;
54368;SDS011;40266;52.434;17.056;2023-05-29T11:43:12;8.60;;;3.70;;
54368;SDS011;40266;52.434;17.056;2023-05-29T11:45:55;8.50;;;3.90;;
54368;SDS011;40266;52.434;17.056;2023-05-29T11:48:48;7.40;;;3.80;;
54368;SDS011;40266;52.434;17.056;2023-05-29T11:51:33;13.50;;;4.50;;
54368;SDS011;40266;52.434;17.056;2023-05-29T11:54:19;6.60;;;3.60;;
54368;SDS011;40266;52.434;17.056;2023-05-29T11:57:02;7.60;;;3.20;;
54368;SDS011;40266;52.434;17.056;2023-05-29T11:59:49;12.10;;;4.20;;
54368;SDS011;40266;52.434;17.056;2023-05-29T12:02:38;7.00;;;3.20;;
54368;SDS011;40266;52.434;17.056;2023-05-29T12:05:21;13.70;;;3.90;;
54368;SDS011;40266;52.434;17.056;2023-05-29T12:08:04;9.00;;;3.40;;
54368;SDS011;40266;52.434;17.056;2023-05-29T12:10:56;7.40;;;3.60;;
54368;SDS011;40266;52.434;17.056;2023-05-29T12:13:39;8.60;;;3.80;;
54368;SDS011;40266;52.434;17.056;2023-05-29T12:16:23;12.00;;;3.40;;
54368;SDS011;40266;52.434;17.056;2023-05-29T12:19:07;6.00;;;2.80;;
54368;SDS011;40266;52.434;17.056;2023-05-29T12:21:50;12.40;;;3.90;;
54368;SDS011;40266;52.434;17.056;2023-05-29T12:24:34;5.30;;;3.00;;
54368;SDS011;40266;52.434;17.056;2023-05-29T12:27:25;8.40;;;3.50;;
54368;SDS011;40266;52.434;17.056;2023-05-29T12:32:59;9.20;;;3.30;;
54368;SDS011;40266;52.434;17.056;2023-05-29T12:35:45;6.10;;;3.00;;
54368;SDS011;40266;52.434;17.056;2023-05-29T12:38:29;9.70;;;3.30;;
54368;SDS011;40266;52.434;17.056;2023-05-29T12:44:09;5.40;;;2.80;;
54368;SDS011;40266;52.434;17.056;2023-05-29T12:46:55;10.90;;;3.80;;
54368;SDS011;40266;52.434;17.056;2023-05-29T12:49:39;5.40;;;3.10;;
54368;SDS011;40266;52.434;17.056;2023-05-29T12:52:23;6.60;;;3.10;;
54368;SDS011;40266;52.434;17.056;2023-05-29T12:55:07;7.30;;;3.60;;
54368;SDS011;40266;52.434;17.056;2023-05-29T12:57:50;7.20;;;3.30;;
54368;SDS011;40266;52.434;17.056;2023-05-29T13:00:34;6.30;;;3.10;;
54368;SDS011;40266;52.434;17.056;2023-05-29T13:03:18;5.20;;;2.90;;
54368;SDS011;40266;52.434;17.056;2023-05-29T13:06:03;8.10;;;3.50;;
54368;SDS011;40266;52.434;17.056;2023-05-29T13:08:47;7.60;;;3.10;;
54368;SDS011;40266;52.434;17.056;2023-05-29T13:11:30;8.70;;;3.40;;
54368;SDS011;40266;52.434;17.056;2023-05-29T13:14:16;5.50;;;2.80;;
54368;SDS011;40266;52.434;17.056;2023-05-29T13:16:59;9.90;;;3.20;;
54368;SDS011;40266;52.434;17.056;2023-05-29T13:19:42;8.20;;;3.10;;
54368;SDS011;40266;52.434;17.056;2023-05-29T13:22:26;5.70;;;3.40;;
54368;SDS011;40266;52.434;17.056;2023-05-29T13:25:15;7.40;;;3.40;;
54368;SDS011;40266;52.434;17.056;2023-05-29T13:27:58;8.70;;;3.10;;
54368;SDS011;40266;52.434;17.056;2023-05-29T13:30:42;6.60;;;3.20;;
54368;SDS011;40266;52.434;17.056;2023-05-29T13:33:30;7.10;;;4.10;;
54368;SDS011;40266;52.434;17.056;2023-05-29T13:36:14;7.30;;;3.40;;
54368;SDS011;40266;52.434;17.056;2023-05-29T13:38:57;3.60;;;2.60;;
54368;SDS011;40266;52.434;17.056;2023-05-29T13:41:40;10.90;;;3.50;;
54368;SDS011;40266;52.434;17.056;2023-05-29T13:44:23;16.70;;;3.90;;
54368;SDS011;40266;52.434;17.056;2023-05-29T13:47:07;22.30;;;3.80;;
54368;SDS011;40266;52.434;17.056;2023-05-29T13:49:51;7.00;;;2.90;;
54368;SDS011;40266;52.434;17.056;2023-05-29T13:52:34;7.30;;;2.70;;
54368;SDS011;40266;52.434;17.056;2023-05-29T13:55:19;9.30;;;3.50;;
54368;SDS011;40266;52.434;17.056;2023-05-29T13:58:02;8.00;;;2.80;;
54368;SDS011;40266;52.434;17.056;2023-05-29T14:00:45;6.20;;;3.00;;
54368;SDS011;40266;52.434;17.056;2023-05-29T14:03:28;5.50;;;3.00;;
54368;SDS011;40266;52.434;17.056;2023-05-29T14:06:12;5.80;;;3.00;;
54368;SDS011;40266;52.434;17.056;2023-05-29T14:08:55;7.80;;;3.50;;
54368;SDS011;40266;52.434;17.056;2023-05-29T14:11:39;6.40;;;3.10;;
54368;SDS011;40266;52.434;17.056;2023-05-29T14:14:24;9.50;;;3.20;;
54368;SDS011;40266;52.434;17.056;2023-05-29T14:17:08;6.50;;;3.10;;
54368;SDS011;40266;52.434;17.056;2023-05-29T14:19:51;8.40;;;3.20;;
54368;SDS011;40266;52.434;17.056;2023-05-29T14:22:34;9.80;;;2.50;;
54368;SDS011;40266;52.434;17.056;2023-05-29T14:25:19;6.60;;;2.80;;
54368;SDS011;40266;52.434;17.056;2023-05-29T14:28:02;12.00;;;3.20;;
54368;SDS011;40266;52.434;17.056;2023-05-29T14:30:45;9.80;;;3.00;;
54368;SDS011;40266;52.434;17.056;2023-05-29T14:33:28;8.60;;;3.70;;
54368;SDS011;40266;52.434;17.056;2023-05-29T14:36:11;5.40;;;3.20;;
54368;SDS011;40266;52.434;17.056;2023-05-29T14:38:55;6.50;;;2.80;;
54368;SDS011;40266;52.434;17.056;2023-05-29T14:41:38;7.70;;;2.60;;
54368;SDS011;40266;52.434;17.056;2023-05-29T14:44:21;4.50;;;2.90;;
54368;SDS011;40266;52.434;17.056;2023-05-29T14:47:04;4.80;;;3.10;;
54368;SDS011;40266;52.434;17.056;2023-05-29T14:49:47;5.40;;;2.80;;
54368;SDS011;40266;52.434;17.056;2023-05-29T14:52:30;6.20;;;2.80;;
54368;SDS011;40266;52.434;17.056;2023-05-29T14:55:13;8.10;;;3.10;;
54368;SDS011;40266;52.434;17.056;2023-05-29T14:57:57;10.00;;;3.20;;
54368;SDS011;40266;52.434;17.056;2023-05-29T15:00:40;7.30;;;2.90;;
54368;SDS011;40266;52.434;17.056;2023-05-29T15:03:23;4.80;;;2.90;;
54368;SDS011;40266;52.434;17.056;2023-05-29T15:06:10;19.70;;;3.70;;
54368;SDS011;40266;52.434;17.056;2023-05-29T15:08:56;9.10;;;2.90;;
54368;SDS011;40266;52.434;17.056;2023-05-29T15:11:40;6.60;;;2.90;;
54368;SDS011;40266;52.434;17.056;2023-05-29T15:14:23;7.30;;;2.80;;
54368;SDS011;40266;52.434;17.056;2023-05-29T15:17:06;12.80;;;3.50;;
54368;SDS011;40266;52.434;17.056;2023-05-29T15:19:49;12.20;;;3.20;;
54368;SDS011;40266;52.434;17.056;2023-05-29T15:22:32;8.10;;;2.90;;
54368;SDS011;40266;52.434;17.056;2023-05-29T15:25:16;8.50;;;3.30;;
54368;SDS011;40266;52.434;17.056;2023-05-29T15:27:59;10.40;;;3.80;;
54368;SDS011;40266;52.434;17.056;2023-05-29T15:30:42;5.30;;;2.70;;
54368;SDS011;40266;52.434;17.056;2023-05-29T15:33:26;4.60;;;2.60;;
54368;SDS011;40266;52.434;17.056;2023-05-29T15:36:12;10.00;;;3.00;;
54368;SDS011;40266;52.434;17.056;2023-05-29T15:38:56;5.20;;;2.70;;
54368;SDS011;40266;52.434;17.056;2023-05-29T15:41:39;5.10;;;2.80;;
54368;SDS011;40266;52.434;17.056;2023-05-29T15:44:22;5.80;;;3.20;;
54368;SDS011;40266;52.434;17.056;2023-05-29T15:47:05;8.00;;;2.60;;
54368;SDS011;40266;52.434;17.056;2023-05-29T15:49:48;5.20;;;2.40;;
54368;SDS011;40266;52.434;17.056;2023-05-29T15:52:32;4.60;;;2.80;;
54368;SDS011;40266;52.434;17.056;2023-05-29T15:55:34;7.80;;;3.00;;
54368;SDS011;40266;52.434;17.056;2023-05-29T15:58:17;7.90;;;3.50;;
54368;SDS011;40266;52.434;17.056;2023-05-29T16:01:01;8.20;;;3.20;;
54368;SDS011;40266;52.434;17.056;2023-05-29T16:03:45;9.00;;;2.90;;
54368;SDS011;40266;52.434;17.056;2023-05-29T16:06:28;13.00;;;2.90;;
54368;SDS011;40266;52.434;17.056;2023-05-29T16:09:11;4.90;;;2.80;;
54368;SDS011;40266;52.434;17.056;2023-05-29T16:11:54;6.20;;;2.60;;
54368;SDS011;40266;52.434;17.056;2023-05-29T16:14:37;10.10;;;3.00;;
54368;SDS011;40266;52.434;17.056;2023-05-29T16:17:22;7.10;;;3.30;;
54368;SDS011;40266;52.434;17.056;2023-05-29T16:20:05;9.20;;;3.30;;
54368;SDS011;40266;52.434;17.056;2023-05-29T16:22:49;12.60;;;4.80;;
54368;SDS011;40266;52.434;17.056;2023-05-29T16:25:31;6.90;;;3.20;;
54368;SDS011;40266;52.434;17.056;2023-05-29T16:28:15;5.90;;;2.70;;
54368;SDS011;40266;52.434;17.056;2023-05-29T16:30:58;5.50;;;2.50;;
54368;SDS011;40266;52.434;17.056;2023-05-29T16:33:41;12.10;;;2.60;;
54368;SDS011;40266;52.434;17.056;2023-05-29T16:36:24;8.50;;;3.40;;
54368;SDS011;40266;52.434;17.056;2023-05-29T16:39:07;9.40;;;2.80;;
54368;SDS011;40266;52.434;17.056;2023-05-29T16:41:50;7.90;;;3.00;;
54368;SDS011;40266;52.434;17.056;2023-05-29T16:44:33;5.80;;;2.80;;
54368;SDS011;40266;52.434;17.056;2023-05-29T16:47:16;8.60;;;2.90;;
54368;SDS011;40266;52.434;17.056;2023-05-29T16:49:59;18.90;;;3.60;;
54368;SDS011;40266;52.434;17.056;2023-05-29T16:52:42;10.30;;;3.10;;